sensor_id;sensor_type;location;lat;lon;timestamp;P1;durP1;ratioP1;P2;durP2;ratioP2
9906;SDS011;4992;51.628;6.664;2022-07-22T00:02:12;7.55;;;4.13;;
9906;SDS011;4992;51.628;6.664;2022-07-22T00:04:37;7.55;;;4.30;;
9906;SDS011;4992;51.628;6.664;2022-07-22T00:07:03;5.97;;;4.05;;
9906;SDS011;4992;51.628;6.664;2022-07-22T00:09:28;5.80;;;3.80;;
9906;SDS011;4992;51.628;6.664;2022-07-22T00:11:55;6.53;;;4.05;;
9906;SDS011;4992;51.628;6.664;2022-07-22T00:14:20;7.53;;;3.60;;
9906;SDS011;4992;51.628;6.664;2022-07-22T00:16:46;4.78;;;3.08;;
9906;SDS011;4992;51.628;6.664;2022-07-22T00:19:11;5.78;;;3.10;;
9906;SDS011;4992;51.628;6.664;2022-07-22T00:21:37;5.25;;;2.35;;
9906;SDS011;4992;51.628;6.664;2022-07-22T00:24:04;3.45;;;2.00;;
9906;SDS011;4992;51.628;6.664;2022-07-22T00:26:29;3.60;;;2.58;;
9906;SDS011;4992;51.628;6.664;2022-07-22T00:28:55;8.90;;;1.83;;
9906;SDS011;4992;51.628;6.664;2022-07-22T00:31:21;2.80;;;2.05;;
9906;SDS011;4992;51.628;6.664;2022-07-22T00:33:46;4.13;;;1.95;;
9906;SDS011;4992;51.628;6.664;2022-07-22T00:36:12;6.88;;;2.70;;
9906;SDS011;4992;51.628;6.664;2022-07-22T00:38:37;5.18;;;2.25;;
9906;SDS011;4992;51.628;6.664;2022-07-22T00:41:03;3.78;;;2.30;;
9906;SDS011;4992;51.628;6.664;2022-07-22T00:43:47;4.57;;;2.40;;
9906;SDS011;4992;51.628;6.664;2022-07-22T00:46:24;3.97;;;2.35;;
9906;SDS011;4992;51.628;6.664;2022-07-22T00:48:51;7.55;;;2.28;;
9906;SDS011;4992;51.628;6.664;2022-07-22T00:51:17;4.85;;;2.45;;
9906;SDS011;4992;51.628;6.664;2022-07-22T00:53:44;5.55;;;2.47;;
9906;SDS011;4992;51.628;6.664;2022-07-22T00:56:11;4.05;;;1.90;;
9906;SDS011;4992;51.628;6.664;2022-07-22T00:58:36;5.90;;;2.30;;
9906;SDS011;4992;51.628;6.664;2022-07-22T01:01:02;4.50;;;2.30;;
9906;SDS011;4992;51.628;6.664;2022-07-22T01:03:28;5.28;;;1.98;;
9906;SDS011;4992;51.628;6.664;2022-07-22T01:05:54;6.43;;;2.45;;
9906;SDS011;4992;51.628;6.664;2022-07-22T01:08:20;5.22;;;2.22;;
9906;SDS011;4992;51.628;6.664;2022-07-22T01:10:45;5.68;;;2.25;;
9906;SDS011;4992;51.628;6.664;2022-07-22T01:13:11;6.78;;;2.33;;
9906;SDS011;4992;51.628;6.664;2022-07-22T01:15:36;7.85;;;2.47;;
9906;SDS011;4992;51.628;6.664;2022-07-22T01:18:02;2.88;;;2.20;;
9906;SDS011;4992;51.628;6.664;2022-07-22T01:20:27;4.22;;;1.80;;
9906;SDS011;4992;51.628;6.664;2022-07-22T01:22:53;4.82;;;1.67;;
9906;SDS011;4992;51.628;6.664;2022-07-22T01:25:19;3.97;;;2.38;;
9906;SDS011;4992;51.628;6.664;2022-07-22T01:27:44;6.18;;;2.63;;
9906;SDS011;4992;51.628;6.664;2022-07-22T01:30:10;2.50;;;1.83;;
9906;SDS011;4992;51.628;6.664;2022-07-22T01:32:36;3.03;;;2.20;;
9906;SDS011;4992;51.628;6.664;2022-07-22T01:35:01;1.85;;;1.70;;
9906;SDS011;4992;51.628;6.664;2022-07-22T01:37:28;3.75;;;2.28;;
9906;SDS011;4992;51.628;6.664;2022-07-22T01:39:53;5.65;;;2.03;;
9906;SDS011;4992;51.628;6.664;2022-07-22T01:42:19;3.25;;;1.83;;
9906;SDS011;4992;51.628;6.664;2022-07-22T01:44:44;5.63;;;2.00;;
9906;SDS011;4992;51.628;6.664;2022-07-22T01:47:10;3.42;;;1.77;;
9906;SDS011;4992;51.628;6.664;2022-07-22T01:49:36;2.42;;;1.60;;
9906;SDS011;4992;51.628;6.664;2022-07-22T01:52:02;2.85;;;1.70;;
9906;SDS011;4992;51.628;6.664;2022-07-22T01:54:29;4.57;;;1.83;;
9906;SDS011;4992;51.628;6.664;2022-07-22T01:56:54;4.57;;;1.88;;
9906;SDS011;4992;51.628;6.664;2022-07-22T01:59:20;5.28;;;2.00;;
9906;SDS011;4992;51.628;6.664;2022-07-22T02:01:45;2.53;;;1.90;;
9906;SDS011;4992;51.628;6.664;2022-07-22T02:04:11;2.78;;;1.67;;
9906;SDS011;4992;51.628;6.664;2022-07-22T02:06:37;2.78;;;1.70;;
9906;SDS011;4992;51.628;6.664;2022-07-22T02:09:02;5.75;;;2.30;;
9906;SDS011;4992;51.628;6.664;2022-07-22T02:11:28;5.50;;;2.00;;
9906;SDS011;4992;51.628;6.664;2022-07-22T02:13:54;3.88;;;2.00;;
9906;SDS011;4992;51.628;6.664;2022-07-22T02:16:19;2.45;;;1.70;;
9906;SDS011;4992;51.628;6.664;2022-07-22T02:18:45;5.05;;;2.13;;
9906;SDS011;4992;51.628;6.664;2022-07-22T02:21:11;8.02;;;1.83;;
9906;SDS011;4992;51.628;6.664;2022-07-22T02:23:37;6.20;;;2.15;;
9906;SDS011;4992;51.628;6.664;2022-07-22T02:26:02;3.70;;;1.85;;
9906;SDS011;4992;51.628;6.664;2022-07-22T02:28:28;5.43;;;2.30;;
9906;SDS011;4992;51.628;6.664;2022-07-22T02:30:53;5.05;;;2.10;;
9906;SDS011;4992;51.628;6.664;2022-07-22T02:33:19;4.95;;;2.30;;
9906;SDS011;4992;51.628;6.664;2022-07-22T02:35:44;4.10;;;2.35;;
9906;SDS011;4992;51.628;6.664;2022-07-22T02:38:10;5.10;;;2.50;;
9906;SDS011;4992;51.628;6.664;2022-07-22T02:40:35;4.10;;;2.30;;
9906;SDS011;4992;51.628;6.664;2022-07-22T02:43:01;5.63;;;2.47;;
9906;SDS011;4992;51.628;6.664;2022-07-22T02:45:31;4.63;;;2.50;;
9906;SDS011;4992;51.628;6.664;2022-07-22T02:47:56;8.75;;;2.88;;
9906;SDS011;4992;51.628;6.664;2022-07-22T02:50:22;7.53;;;2.63;;
9906;SDS011;4992;51.628;6.664;2022-07-22T02:52:49;8.95;;;3.15;;
9906;SDS011;4992;51.628;6.664;2022-07-22T02:55:15;8.15;;;2.70;;
9906;SDS011;4992;51.628;6.664;2022-07-22T02:57:40;8.27;;;2.58;;
9906;SDS011;4992;51.628;6.664;2022-07-22T03:00:07;5.22;;;2.83;;
9906;SDS011;4992;51.628;6.664;2022-07-22T03:02:34;4.03;;;2.80;;
9906;SDS011;4992;51.628;6.664;2022-07-22T03:05:00;4.57;;;2.60;;
9906;SDS011;4992;51.628;6.664;2022-07-22T03:07:26;9.65;;;2.40;;
9906;SDS011;4992;51.628;6.664;2022-07-22T03:09:51;5.07;;;2.05;;
9906;SDS011;4992;51.628;6.664;2022-07-22T03:12:17;3.65;;;2.15;;
9906;SDS011;4992;51.628;6.664;2022-07-22T03:14:42;6.68;;;2.33;;
9906;SDS011;4992;51.628;6.664;2022-07-22T03:17:08;5.95;;;2.20;;
9906;SDS011;4992;51.628;6.664;2022-07-22T03:19:33;9.82;;;2.22;;
9906;SDS011;4992;51.628;6.664;2022-07-22T03:21:59;6.88;;;2.33;;
9906;SDS011;4992;51.628;6.664;2022-07-22T03:24:24;7.32;;;2.25;;
9906;SDS011;4992;51.628;6.664;2022-07-22T03:26:50;4.78;;;2.13;;
9906;SDS011;4992;51.628;6.664;2022-07-22T03:29:15;3.63;;;2.00;;
9906;SDS011;4992;51.628;6.664;2022-07-22T03:31:41;6.20;;;2.47;;
9906;SDS011;4992;51.628;6.664;2022-07-22T03:34:06;6.35;;;2.50;;
9906;SDS011;4992;51.628;6.664;2022-07-22T03:36:32;6.40;;;2.63;;
9906;SDS011;4992;51.628;6.664;2022-07-22T03:38:57;8.80;;;2.67;;
9906;SDS011;4992;51.628;6.664;2022-07-22T03:41:23;6.82;;;2.63;;
9906;SDS011;4992;51.628;6.664;2022-07-22T03:43:49;6.03;;;3.10;;
9906;SDS011;4992;51.628;6.664;2022-07-22T03:46:14;9.82;;;2.88;;
9906;SDS011;4992;51.628;6.664;2022-07-22T03:48:40;5.70;;;2.55;;
9906;SDS011;4992;51.628;6.664;2022-07-22T03:51:05;10.20;;;3.22;;
9906;SDS011;4992;51.628;6.664;2022-07-22T03:53:31;4.65;;;2.67;;
9906;SDS011;4992;51.628;6.664;2022-07-22T03:56:00;8.35;;;3.55;;
9906;SDS011;4992;51.628;6.664;2022-07-22T03:58:26;9.68;;;3.03;;
9906;SDS011;4992;51.628;6.664;2022-07-22T04:00:52;5.63;;;2.58;;
9906;SDS011;4992;51.628;6.664;2022-07-22T04:03:18;4.63;;;2.72;;
9906;SDS011;4992;51.628;6.664;2022-07-22T04:05:44;7.15;;;3.10;;
9906;SDS011;4992;51.628;6.664;2022-07-22T04:08:10;9.25;;;3.42;;
9906;SDS011;4992;51.628;6.664;2022-07-22T04:10:36;7.25;;;3.22;;
9906;SDS011;4992;51.628;6.664;2022-07-22T04:13:02;7.45;;;3.03;;
9906;SDS011;4992;51.628;6.664;2022-07-22T04:15:28;6.90;;;2.83;;
9906;SDS011;4992;51.628;6.664;2022-07-22T04:17:53;9.55;;;3.33;;
9906;SDS011;4992;51.628;6.664;2022-07-22T04:20:19;9.20;;;3.05;;
9906;SDS011;4992;51.628;6.664;2022-07-22T04:22:44;5.38;;;3.30;;
9906;SDS011;4992;51.628;6.664;2022-07-22T04:25:10;8.25;;;3.45;;
9906;SDS011;4992;51.628;6.664;2022-07-22T04:27:35;10.63;;;3.33;;
9906;SDS011;4992;51.628;6.664;2022-07-22T04:30:01;7.82;;;3.33;;
9906;SDS011;4992;51.628;6.664;2022-07-22T04:32:27;6.32;;;3.63;;
9906;SDS011;4992;51.628;6.664;2022-07-22T04:34:53;15.40;;;3.30;;
9906;SDS011;4992;51.628;6.664;2022-07-22T04:37:18;8.32;;;3.25;;
9906;SDS011;4992;51.628;6.664;2022-07-22T04:39:44;9.23;;;3.88;;
9906;SDS011;4992;51.628;6.664;2022-07-22T04:42:09;4.93;;;2.97;;
9906;SDS011;4992;51.628;6.664;2022-07-22T04:44:35;7.03;;;3.35;;
9906;SDS011;4992;51.628;6.664;2022-07-22T04:47:00;6.53;;;3.45;;
9906;SDS011;4992;51.628;6.664;2022-07-22T04:49:26;12.23;;;3.67;;
9906;SDS011;4992;51.628;6.664;2022-07-22T04:51:51;6.35;;;3.13;;
9906;SDS011;4992;51.628;6.664;2022-07-22T04:54:17;8.85;;;3.20;;
9906;SDS011;4992;51.628;6.664;2022-07-22T04:56:43;6.80;;;3.50;;
9906;SDS011;4992;51.628;6.664;2022-07-22T04:59:08;5.30;;;3.15;;
9906;SDS011;4992;51.628;6.664;2022-07-22T05:01:34;10.32;;;3.33;;
9906;SDS011;4992;51.628;6.664;2022-07-22T05:03:59;6.65;;;3.08;;
9906;SDS011;4992;51.628;6.664;2022-07-22T05:06:25;6.63;;;2.67;;
9906;SDS011;4992;51.628;6.664;2022-07-22T05:08:50;4.90;;;2.92;;
9906;SDS011;4992;51.628;6.664;2022-07-22T05:11:16;13.32;;;3.55;;
9906;SDS011;4992;51.628;6.664;2022-07-22T05:13:42;7.20;;;2.92;;
9906;SDS011;4992;51.628;6.664;2022-07-22T05:16:08;17.10;;;3.17;;
9906;SDS011;4992;51.628;6.664;2022-07-22T05:18:33;5.32;;;2.70;;
9906;SDS011;4992;51.628;6.664;2022-07-22T05:20:59;9.70;;;1.90;;
9906;SDS011;4992;51.628;6.664;2022-07-22T05:23:25;3.22;;;1.95;;
9906;SDS011;4992;51.628;6.664;2022-07-22T05:25:51;6.28;;;2.22;;
9906;SDS011;4992;51.628;6.664;2022-07-22T05:28:16;6.63;;;2.30;;
9906;SDS011;4992;51.628;6.664;2022-07-22T05:30:42;3.58;;;2.05;;
9906;SDS011;4992;51.628;6.664;2022-07-22T05:33:07;7.18;;;2.30;;
9906;SDS011;4992;51.628;6.664;2022-07-22T05:35:33;3.58;;;2.30;;
9906;SDS011;4992;51.628;6.664;2022-07-22T05:37:59;8.55;;;2.63;;
9906;SDS011;4992;51.628;6.664;2022-07-22T05:40:24;5.93;;;2.53;;
9906;SDS011;4992;51.628;6.664;2022-07-22T05:42:50;6.80;;;2.78;;
9906;SDS011;4992;51.628;6.664;2022-07-22T05:45:15;4.97;;;2.08;;
9906;SDS011;4992;51.628;6.664;2022-07-22T05:47:41;5.13;;;1.83;;
9906;SDS011;4992;51.628;6.664;2022-07-22T05:50:06;7.13;;;2.33;;
9906;SDS011;4992;51.628;6.664;2022-07-22T05:52:35;9.23;;;2.42;;
9906;SDS011;4992;51.628;6.664;2022-07-22T05:55:01;6.32;;;2.03;;
9906;SDS011;4992;51.628;6.664;2022-07-22T05:57:27;6.32;;;2.05;;
9906;SDS011;4992;51.628;6.664;2022-07-22T05:59:52;4.13;;;1.65;;
9906;SDS011;4992;51.628;6.664;2022-07-22T06:02:18;5.30;;;1.85;;
9906;SDS011;4992;51.628;6.664;2022-07-22T06:04:43;7.72;;;1.80;;
9906;SDS011;4992;51.628;6.664;2022-07-22T06:07:09;4.80;;;1.73;;
9906;SDS011;4992;51.628;6.664;2022-07-22T06:09:34;5.93;;;1.75;;
9906;SDS011;4992;51.628;6.664;2022-07-22T06:12:00;6.18;;;2.00;;
9906;SDS011;4992;51.628;6.664;2022-07-22T06:14:25;7.90;;;1.85;;
9906;SDS011;4992;51.628;6.664;2022-07-22T06:16:51;5.93;;;1.67;;
9906;SDS011;4992;51.628;6.664;2022-07-22T06:19:16;5.75;;;2.13;;
9906;SDS011;4992;51.628;6.664;2022-07-22T06:21:42;4.05;;;1.73;;
9906;SDS011;4992;51.628;6.664;2022-07-22T06:24:07;5.50;;;1.63;;
9906;SDS011;4992;51.628;6.664;2022-07-22T06:26:33;3.72;;;1.60;;
9906;SDS011;4992;51.628;6.664;2022-07-22T06:28:58;8.52;;;2.00;;
9906;SDS011;4992;51.628;6.664;2022-07-22T06:31:24;8.10;;;2.25;;
9906;SDS011;4992;51.628;6.664;2022-07-22T06:33:49;3.45;;;1.60;;
9906;SDS011;4992;51.628;6.664;2022-07-22T06:36:15;6.18;;;1.33;;
9906;SDS011;4992;51.628;6.664;2022-07-22T06:38:42;5.63;;;1.63;;
9906;SDS011;4992;51.628;6.664;2022-07-22T06:41:08;4.57;;;1.23;;
9906;SDS011;4992;51.628;6.664;2022-07-22T06:43:34;4.70;;;1.10;;
9906;SDS011;4992;51.628;6.664;2022-07-22T06:45:59;5.20;;;1.73;;
9906;SDS011;4992;51.628;6.664;2022-07-22T06:48:25;6.43;;;1.73;;
9906;SDS011;4992;51.628;6.664;2022-07-22T06:50:50;4.32;;;1.40;;
9906;SDS011;4992;51.628;6.664;2022-07-22T06:53:16;4.38;;;1.70;;
9906;SDS011;4992;51.628;6.664;2022-07-22T06:55:41;4.22;;;1.15;;
9906;SDS011;4992;51.628;6.664;2022-07-22T06:58:07;7.45;;;1.60;;
9906;SDS011;4992;51.628;6.664;2022-07-22T07:00:33;5.15;;;1.98;;
9906;SDS011;4992;51.628;6.664;2022-07-22T07:02:58;5.95;;;2.03;;
9906;SDS011;4992;51.628;6.664;2022-07-22T07:05:25;5.78;;;1.88;;
9906;SDS011;4992;51.628;6.664;2022-07-22T07:07:52;5.00;;;1.70;;
9906;SDS011;4992;51.628;6.664;2022-07-22T07:10:18;3.63;;;1.30;;
9906;SDS011;4992;51.628;6.664;2022-07-22T07:12:43;4.97;;;1.58;;
9906;SDS011;4992;51.628;6.664;2022-07-22T07:15:09;7.47;;;1.55;;
9906;SDS011;4992;51.628;6.664;2022-07-22T07:17:36;6.50;;;1.42;;
9906;SDS011;4992;51.628;6.664;2022-07-22T07:20:01;4.07;;;1.50;;
9906;SDS011;4992;51.628;6.664;2022-07-22T07:22:27;5.10;;;1.40;;
9906;SDS011;4992;51.628;6.664;2022-07-22T07:24:52;4.43;;;1.33;;
9906;SDS011;4992;51.628;6.664;2022-07-22T07:27:18;5.60;;;1.77;;
9906;SDS011;4992;51.628;6.664;2022-07-22T07:29:43;5.50;;;1.35;;
9906;SDS011;4992;51.628;6.664;2022-07-22T07:32:10;6.38;;;1.42;;
9906;SDS011;4992;51.628;6.664;2022-07-22T07:34:36;4.18;;;1.65;;
9906;SDS011;4992;51.628;6.664;2022-07-22T07:37:01;3.53;;;1.20;;
9906;SDS011;4992;51.628;6.664;2022-07-22T07:39:27;2.63;;;1.33;;
9906;SDS011;4992;51.628;6.664;2022-07-22T07:41:52;6.10;;;1.58;;
9906;SDS011;4992;51.628;6.664;2022-07-22T07:44:18;2.55;;;0.90;;
9906;SDS011;4992;51.628;6.664;2022-07-22T07:46:44;3.80;;;1.30;;
9906;SDS011;4992;51.628;6.664;2022-07-22T07:49:09;3.30;;;0.90;;
9906;SDS011;4992;51.628;6.664;2022-07-22T07:51:35;4.32;;;1.00;;
9906;SDS011;4992;51.628;6.664;2022-07-22T07:54:00;21.15;;;5.30;;
9906;SDS011;4992;51.628;6.664;2022-07-22T07:56:26;151.70;;;40.60;;
9906;SDS011;4992;51.628;6.664;2022-07-22T07:58:52;116.85;;;34.33;;
9906;SDS011;4992;51.628;6.664;2022-07-22T08:01:17;30.58;;;9.15;;
9906;SDS011;4992;51.628;6.664;2022-07-22T08:03:43;4.75;;;2.13;;
9906;SDS011;4992;51.628;6.664;2022-07-22T08:06:08;9.63;;;2.35;;
9906;SDS011;4992;51.628;6.664;2022-07-22T08:08:34;3.45;;;1.95;;
9906;SDS011;4992;51.628;6.664;2022-07-22T08:11:00;8.57;;;2.35;;
9906;SDS011;4992;51.628;6.664;2022-07-22T08:13:26;7.50;;;1.50;;
9906;SDS011;4992;51.628;6.664;2022-07-22T08:15:51;6.15;;;1.73;;
9906;SDS011;4992;51.628;6.664;2022-07-22T08:18:17;4.63;;;1.58;;
9906;SDS011;4992;51.628;6.664;2022-07-22T08:20:43;3.17;;;1.15;;
9906;SDS011;4992;51.628;6.664;2022-07-22T08:23:08;7.32;;;1.52;;
9906;SDS011;4992;51.628;6.664;2022-07-22T08:25:34;5.97;;;1.30;;
9906;SDS011;4992;51.628;6.664;2022-07-22T08:27:59;2.53;;;1.13;;
9906;SDS011;4992;51.628;6.664;2022-07-22T08:30:25;2.67;;;1.10;;
9906;SDS011;4992;51.628;6.664;2022-07-22T08:32:53;4.32;;;1.35;;
9906;SDS011;4992;51.628;6.664;2022-07-22T08:35:19;5.50;;;1.35;;
9906;SDS011;4992;51.628;6.664;2022-07-22T08:37:44;2.78;;;1.33;;
9906;SDS011;4992;51.628;6.664;2022-07-22T08:40:12;2.85;;;1.58;;
9906;SDS011;4992;51.628;6.664;2022-07-22T08:42:38;4.55;;;1.23;;
9906;SDS011;4992;51.628;6.664;2022-07-22T08:45:05;2.67;;;1.52;;
9906;SDS011;4992;51.628;6.664;2022-07-22T08:47:32;2.78;;;1.70;;
9906;SDS011;4992;51.628;6.664;2022-07-22T08:49:58;11.20;;;5.03;;
9906;SDS011;4992;51.628;6.664;2022-07-22T08:52:24;4.35;;;2.05;;
9906;SDS011;4992;51.628;6.664;2022-07-22T08:54:49;4.13;;;1.35;;
9906;SDS011;4992;51.628;6.664;2022-07-22T08:57:15;5.60;;;1.60;;
9906;SDS011;4992;51.628;6.664;2022-07-22T08:59:51;3.30;;;1.25;;
9906;SDS011;4992;51.628;6.664;2022-07-22T09:02:18;3.25;;;1.50;;
9906;SDS011;4992;51.628;6.664;2022-07-22T09:04:52;2.90;;;1.73;;
9906;SDS011;4992;51.628;6.664;2022-07-22T09:07:34;3.55;;;1.30;;
9906;SDS011;4992;51.628;6.664;2022-07-22T09:10:02;4.55;;;2.00;;
9906;SDS011;4992;51.628;6.664;2022-07-22T09:12:29;5.45;;;1.60;;
9906;SDS011;4992;51.628;6.664;2022-07-22T09:14:57;3.60;;;1.52;;
9906;SDS011;4992;51.628;6.664;2022-07-22T09:17:36;4.32;;;1.70;;
9906;SDS011;4992;51.628;6.664;2022-07-22T09:20:05;3.63;;;1.70;;
9906;SDS011;4992;51.628;6.664;2022-07-22T09:22:43;3.22;;;1.40;;
9906;SDS011;4992;51.628;6.664;2022-07-22T09:27:49;4.55;;;1.95;;
9906;SDS011;4992;51.628;6.664;2022-07-22T09:30:19;2.65;;;1.70;;
9906;SDS011;4992;51.628;6.664;2022-07-22T09:32:49;6.10;;;1.67;;
9906;SDS011;4992;51.628;6.664;2022-07-22T09:35:16;4.32;;;1.80;;
9906;SDS011;4992;51.628;6.664;2022-07-22T09:38:03;2.97;;;1.38;;
9906;SDS011;4992;51.628;6.664;2022-07-22T09:40:31;4.78;;;1.83;;
9906;SDS011;4992;51.628;6.664;2022-07-22T09:43:00;5.00;;;1.73;;
9906;SDS011;4992;51.628;6.664;2022-07-22T09:45:43;7.93;;;1.50;;
9906;SDS011;4992;51.628;6.664;2022-07-22T09:48:11;6.32;;;1.50;;
9906;SDS011;4992;51.628;6.664;2022-07-22T09:50:37;4.40;;;1.70;;
9906;SDS011;4992;51.628;6.664;2022-07-22T09:53:02;7.15;;;2.97;;
9906;SDS011;4992;51.628;6.664;2022-07-22T09:55:28;3.22;;;1.50;;
9906;SDS011;4992;51.628;6.664;2022-07-22T09:57:55;3.35;;;1.75;;
9906;SDS011;4992;51.628;6.664;2022-07-22T10:00:22;4.65;;;1.85;;
9906;SDS011;4992;51.628;6.664;2022-07-22T10:02:50;5.72;;;1.65;;
9906;SDS011;4992;51.628;6.664;2022-07-22T10:05:24;2.42;;;1.63;;
9906;SDS011;4992;51.628;6.664;2022-07-22T10:07:51;4.50;;;1.88;;
9906;SDS011;4992;51.628;6.664;2022-07-22T10:10:18;1.77;;;1.33;;
9906;SDS011;4992;51.628;6.664;2022-07-22T10:12:47;2.42;;;1.60;;
9906;SDS011;4992;51.628;6.664;2022-07-22T10:15:14;2.20;;;1.67;;
9906;SDS011;4992;51.628;6.664;2022-07-22T10:17:41;3.25;;;1.73;;
9906;SDS011;4992;51.628;6.664;2022-07-22T10:20:08;4.20;;;1.85;;
9906;SDS011;4992;51.628;6.664;2022-07-22T10:25:07;3.28;;;2.30;;
9906;SDS011;4992;51.628;6.664;2022-07-22T10:27:53;5.45;;;1.73;;
9906;SDS011;4992;51.628;6.664;2022-07-22T10:30:32;4.35;;;1.60;;
9906;SDS011;4992;51.628;6.664;2022-07-22T10:33:07;5.20;;;1.65;;
9906;SDS011;4992;51.628;6.664;2022-07-22T10:38:24;3.10;;;1.67;;
9906;SDS011;4992;51.628;6.664;2022-07-22T10:40:55;2.17;;;1.45;;
9906;SDS011;4992;51.628;6.664;2022-07-22T10:43:25;5.22;;;1.65;;
9906;SDS011;4992;51.628;6.664;2022-07-22T10:45:55;2.00;;;1.45;;
9906;SDS011;4992;51.628;6.664;2022-07-22T10:48:24;2.33;;;1.52;;
9906;SDS011;4992;51.628;6.664;2022-07-22T10:51:19;2.53;;;1.48;;
9906;SDS011;4992;51.628;6.664;2022-07-22T10:53:59;4.63;;;1.95;;
9906;SDS011;4992;51.628;6.664;2022-07-22T10:56:28;2.45;;;1.60;;
9906;SDS011;4992;51.628;6.664;2022-07-22T10:58:56;2.55;;;1.92;;
9906;SDS011;4992;51.628;6.664;2022-07-22T11:01:31;1.88;;;1.60;;
9906;SDS011;4992;51.628;6.664;2022-07-22T11:06:35;2.72;;;1.63;;
9906;SDS011;4992;51.628;6.664;2022-07-22T11:09:02;3.83;;;1.58;;
9906;SDS011;4992;51.628;6.664;2022-07-22T11:14:26;2.85;;;1.70;;
9906;SDS011;4992;51.628;6.664;2022-07-22T11:16:58;3.00;;;1.80;;
9906;SDS011;4992;51.628;6.664;2022-07-22T11:19:31;4.93;;;1.50;;
9906;SDS011;4992;51.628;6.664;2022-07-22T11:22:00;3.92;;;1.85;;
9906;SDS011;4992;51.628;6.664;2022-07-22T11:24:29;4.25;;;2.13;;
9906;SDS011;4992;51.628;6.664;2022-07-22T11:26:55;3.22;;;1.40;;
9906;SDS011;4992;51.628;6.664;2022-07-22T11:29:34;2.40;;;1.67;;
9906;SDS011;4992;51.628;6.664;2022-07-22T11:32:06;3.53;;;1.70;;
9906;SDS011;4992;51.628;6.664;2022-07-22T11:34:37;3.45;;;2.13;;
9906;SDS011;4992;51.628;6.664;2022-07-22T11:37:07;3.60;;;2.03;;
9906;SDS011;4992;51.628;6.664;2022-07-22T11:39:33;3.53;;;1.80;;
9906;SDS011;4992;51.628;6.664;2022-07-22T11:42:00;1.70;;;1.40;;
9906;SDS011;4992;51.628;6.664;2022-07-22T11:44:27;3.35;;;1.65;;
9906;SDS011;4992;51.628;6.664;2022-07-22T11:46:54;3.45;;;1.52;;
9906;SDS011;4992;51.628;6.664;2022-07-22T11:49:23;2.97;;;1.50;;
9906;SDS011;4992;51.628;6.664;2022-07-22T11:51:50;5.75;;;1.70;;
9906;SDS011;4992;51.628;6.664;2022-07-22T11:54:16;3.92;;;1.73;;
9906;SDS011;4992;51.628;6.664;2022-07-22T11:56:43;2.65;;;1.50;;
9906;SDS011;4992;51.628;6.664;2022-07-22T11:59:11;3.63;;;1.92;;
9906;SDS011;4992;51.628;6.664;2022-07-22T12:01:38;1.98;;;1.10;;
9906;SDS011;4992;51.628;6.664;2022-07-22T12:04:05;2.85;;;1.50;;
9906;SDS011;4992;51.628;6.664;2022-07-22T12:06:34;2.53;;;1.25;;
9906;SDS011;4992;51.628;6.664;2022-07-22T12:09:09;3.35;;;1.60;;
9906;SDS011;4992;51.628;6.664;2022-07-22T12:11:38;1.70;;;1.10;;
9906;SDS011;4992;51.628;6.664;2022-07-22T12:14:07;1.92;;;1.38;;
9906;SDS011;4992;51.628;6.664;2022-07-22T12:17:09;3.00;;;1.13;;
9906;SDS011;4992;51.628;6.664;2022-07-22T12:19:35;2.35;;;1.20;;
9906;SDS011;4992;51.628;6.664;2022-07-22T12:22:05;2.83;;;0.95;;
9906;SDS011;4992;51.628;6.664;2022-07-22T12:24:32;1.23;;;0.85;;
9906;SDS011;4992;51.628;6.664;2022-07-22T12:27:07;4.78;;;1.42;;
9906;SDS011;4992;51.628;6.664;2022-07-22T12:32:03;1.63;;;0.90;;
9906;SDS011;4992;51.628;6.664;2022-07-22T12:34:46;3.63;;;1.20;;
9906;SDS011;4992;51.628;6.664;2022-07-22T12:37:23;4.38;;;1.73;;
9906;SDS011;4992;51.628;6.664;2022-07-22T12:40:09;1.60;;;0.80;;
9906;SDS011;4992;51.628;6.664;2022-07-22T12:42:42;2.95;;;1.10;;
9906;SDS011;4992;51.628;6.664;2022-07-22T12:45:10;5.30;;;1.70;;
9906;SDS011;4992;51.628;6.664;2022-07-22T12:47:40;2.42;;;1.33;;
9906;SDS011;4992;51.628;6.664;2022-07-22T12:52:59;3.78;;;1.23;;
9906;SDS011;4992;51.628;6.664;2022-07-22T12:55:29;4.20;;;1.50;;
9906;SDS011;4992;51.628;6.664;2022-07-22T12:57:56;2.28;;;1.23;;
9906;SDS011;4992;51.628;6.664;2022-07-22T13:00:23;2.20;;;1.17;;
9906;SDS011;4992;51.628;6.664;2022-07-22T13:02:50;2.78;;;1.25;;
9906;SDS011;4992;51.628;6.664;2022-07-22T13:05:17;2.25;;;1.20;;
9906;SDS011;4992;51.628;6.664;2022-07-22T13:07:43;2.13;;;1.38;;
9906;SDS011;4992;51.628;6.664;2022-07-22T13:10:10;3.25;;;1.30;;
9906;SDS011;4992;51.628;6.664;2022-07-22T13:12:37;3.95;;;1.20;;
9906;SDS011;4992;51.628;6.664;2022-07-22T13:15:03;1.98;;;1.00;;
9906;SDS011;4992;51.628;6.664;2022-07-22T13:17:29;3.08;;;1.45;;
9906;SDS011;4992;51.628;6.664;2022-07-22T13:19:55;3.60;;;1.70;;
9906;SDS011;4992;51.628;6.664;2022-07-22T13:22:20;3.75;;;1.20;;
9906;SDS011;4992;51.628;6.664;2022-07-22T13:24:46;3.60;;;1.20;;
9906;SDS011;4992;51.628;6.664;2022-07-22T13:27:11;3.72;;;1.60;;
9906;SDS011;4992;51.628;6.664;2022-07-22T13:29:37;1.52;;;1.25;;
9906;SDS011;4992;51.628;6.664;2022-07-22T13:32:03;3.60;;;1.50;;
9906;SDS011;4992;51.628;6.664;2022-07-22T13:34:29;1.95;;;1.25;;
9906;SDS011;4992;51.628;6.664;2022-07-22T13:36:55;2.08;;;1.40;;
9906;SDS011;4992;51.628;6.664;2022-07-22T13:39:21;3.50;;;2.13;;
9906;SDS011;4992;51.628;6.664;2022-07-22T13:41:47;3.67;;;1.38;;
9906;SDS011;4992;51.628;6.664;2022-07-22T13:44:13;1.30;;;1.00;;
9906;SDS011;4992;51.628;6.664;2022-07-22T13:46:38;3.25;;;1.40;;
9906;SDS011;4992;51.628;6.664;2022-07-22T13:49:04;1.80;;;1.23;;
9906;SDS011;4992;51.628;6.664;2022-07-22T13:51:29;4.38;;;1.77;;
9906;SDS011;4992;51.628;6.664;2022-07-22T13:53:55;1.90;;;1.20;;
9906;SDS011;4992;51.628;6.664;2022-07-22T13:56:21;4.18;;;1.20;;
9906;SDS011;4992;51.628;6.664;2022-07-22T13:58:47;7.20;;;1.35;;
9906;SDS011;4992;51.628;6.664;2022-07-22T14:01:12;3.17;;;1.52;;
9906;SDS011;4992;51.628;6.664;2022-07-22T14:03:38;2.75;;;1.38;;
9906;SDS011;4992;51.628;6.664;2022-07-22T14:06:04;3.42;;;1.55;;
9906;SDS011;4992;51.628;6.664;2022-07-22T14:08:31;2.75;;;1.30;;
9906;SDS011;4992;51.628;6.664;2022-07-22T14:10:57;3.22;;;1.63;;
9906;SDS011;4992;51.628;6.664;2022-07-22T14:13:22;2.20;;;1.27;;
9906;SDS011;4992;51.628;6.664;2022-07-22T14:15:48;1.73;;;1.30;;
9906;SDS011;4992;51.628;6.664;2022-07-22T14:18:13;2.85;;;1.27;;
9906;SDS011;4992;51.628;6.664;2022-07-22T14:20:39;2.13;;;1.33;;
9906;SDS011;4992;51.628;6.664;2022-07-22T14:23:05;3.25;;;1.30;;
9906;SDS011;4992;51.628;6.664;2022-07-22T14:25:32;2.10;;;1.42;;
9906;SDS011;4992;51.628;6.664;2022-07-22T14:27:58;3.60;;;1.42;;
9906;SDS011;4992;51.628;6.664;2022-07-22T14:30:23;4.15;;;1.45;;
9906;SDS011;4992;51.628;6.664;2022-07-22T14:32:49;2.33;;;1.58;;
9906;SDS011;4992;51.628;6.664;2022-07-22T14:35:15;1.30;;;1.20;;
9906;SDS011;4992;51.628;6.664;2022-07-22T14:37:40;1.67;;;1.40;;
9906;SDS011;4992;51.628;6.664;2022-07-22T14:40:06;4.63;;;1.67;;
9906;SDS011;4992;51.628;6.664;2022-07-22T14:42:32;1.98;;;1.60;;
9906;SDS011;4992;51.628;6.664;2022-07-22T14:44:58;1.60;;;1.50;;
9906;SDS011;4992;51.628;6.664;2022-07-22T14:47:24;2.00;;;1.50;;
9906;SDS011;4992;51.628;6.664;2022-07-22T14:49:49;3.42;;;1.63;;
9906;SDS011;4992;51.628;6.664;2022-07-22T14:52:15;1.92;;;1.30;;
9906;SDS011;4992;51.628;6.664;2022-07-22T14:54:40;1.85;;;1.25;;
9906;SDS011;4992;51.628;6.664;2022-07-22T14:57:06;3.50;;;1.65;;
9906;SDS011;4992;51.628;6.664;2022-07-22T14:59:32;1.98;;;1.50;;
9906;SDS011;4992;51.628;6.664;2022-07-22T15:01:58;2.15;;;1.10;;
9906;SDS011;4992;51.628;6.664;2022-07-22T15:04:23;3.20;;;1.35;;
9906;SDS011;4992;51.628;6.664;2022-07-22T15:06:49;3.67;;;1.33;;
9906;SDS011;4992;51.628;6.664;2022-07-22T15:09:14;2.42;;;0.90;;
9906;SDS011;4992;51.628;6.664;2022-07-22T15:11:40;1.98;;;1.30;;
9906;SDS011;4992;51.628;6.664;2022-07-22T15:14:06;3.20;;;1.60;;
9906;SDS011;4992;51.628;6.664;2022-07-22T15:16:31;4.88;;;1.60;;
9906;SDS011;4992;51.628;6.664;2022-07-22T15:18:57;2.42;;;1.65;;
9906;SDS011;4992;51.628;6.664;2022-07-22T15:21:22;1.75;;;1.23;;
9906;SDS011;4992;51.628;6.664;2022-07-22T15:23:48;2.97;;;1.35;;
9906;SDS011;4992;51.628;6.664;2022-07-22T15:26:14;2.72;;;1.50;;
9906;SDS011;4992;51.628;6.664;2022-07-22T15:28:39;1.55;;;1.20;;
9906;SDS011;4992;51.628;6.664;2022-07-22T15:31:05;2.65;;;1.45;;
9906;SDS011;4992;51.628;6.664;2022-07-22T15:33:31;1.50;;;1.40;;